Laurence M. Gould — WCX7445 — position and weather

sailwx.info

Track history (hours):
 
Tides and Currents Weather Stations Pressure Air Temp Water Temp Dewpoint Dewpoint Depression Visibility Wind Speed Wind Dir Waves Ship Positions

Oceanographic research ship Laurence M. Gould (USA)

Detailed information on ship capabilities available from University of Delaware's Ocean Information Center.

Owner: Offshore Service Vessels LLC, Cut Off, LA. More information available from US FCC via Universal Licensing System and Coast Guard Vessel Documentation Center.

Last reported at 2017-Oct-18 23:00 UTC. Time now 2017-Oct-19 00:17 UTC.
Position S 53°06' W 070°54'.

Type: Ship. MMSI: 368138000.

Wind from 280 at 11 knots

Barometer 1006.4 mb
Air temperature 6.0 ° C
Dewpoint -2.4 ° C

Date/timePositionNaut miles runAvg speedWind from/ knotsBaromVisibWave heightAir tempDewpointWater temp
2017-Oct-18 23:00S 53°06' W 070°54'0 0.0 280 / 111006.4 6.0-2.4
2017-Oct-18 22:00S 53°06' W 070°54'0 0.0 270 / 111006.0 6.6-2.9
2017-Oct-18 21:00S 53°06' W 070°54'0 0.0 270 / 141005.6 6.9-3.4
2017-Oct-18 20:00S 53°06' W 070°54'0 0.0 270 / 151005.1 6.7-3.0
2017-Oct-18 19:00S 53°06' W 070°54'0 0.0 240 / 161004.6 6.6-4.4
2017-Oct-18 18:00S 53°06' W 070°54'0 0.0 250 / 171004.4 6.5-4.4
2017-Oct-18 17:00S 53°06' W 070°54'0 0.0 250 / 161004.3 5.6-4.6
2017-Oct-18 16:00S 53°06' W 070°54'0 0.0 250 / 161004.2 5.3-4.9
2017-Oct-18 15:00S 53°06' W 070°54'0 0.0 250 / 191003.5 5.3-5.4
2017-Oct-18 14:00S 53°06' W 070°54'0 0.0 260 / 161003.3 4.4-3.7
2017-Oct-18 13:00S 53°06' W 070°54'0 0.0 270 / 161002.5 4.1-3.1
2017-Oct-18 12:00S 53°06' W 070°54'0 0.0 270 / 111002.0 3.7-3.0
2017-Oct-18 11:00S 53°06' W 070°54'0 0.0 260 / 121000.9 3.7-3.6
2017-Oct-18 10:00S 53°06' W 070°54'0 0.0 260 / 12999.9 3.6-3.3
2017-Oct-18 09:00S 53°06' W 070°54'0 0.0 260 / 12998.9 3.6-2.8
2017-Oct-18 08:00S 53°06' W 070°54'0 0.0 260 / 11998.1 3.8-1.4
2017-Oct-18 07:00S 53°06' W 070°54'0 0.0 270 / 13997.0 4.0-0.5
2017-Oct-18 06:00S 53°06' W 070°54'0 0.0 280 / 14996.0 4.3-0.6
2017-Oct-18 05:00S 53°06' W 070°54'0 0.0 280 / 15995.6 4.5-0.0
2017-Oct-18 04:00S 53°06' W 070°54'0 0.0 280 / 14994.6 4.8-0.0
2017-Oct-18 03:00S 53°06' W 070°54'0 0.0 270 / 18993.5 5.2-0.0
2017-Oct-18 02:00S 53°06' W 070°54'0 0.0 270 / 20992.6 5.6-0.3
2017-Oct-18 01:00S 53°06' W 070°54'0 0.0 260 / 6992.9 5.7-0.1
2017-Oct-18 00:00S 53°06' W 070°54'0 0.0 270 / 9992.3 5.9-0.2
2017-Oct-17 23:00S 53°06' W 070°54'0 0.0 270 / 9991.3 7.4-0.0
2017-Oct-17 22:00S 53°06' W 070°54'0 0.0 270 / 16989.8 7.5 0.2
2017-Oct-17 21:00S 53°06' W 070°54'0 0.0 280 / 22988.1 7.7 0.1
2017-Oct-17 20:00S 53°06' W 070°54'0 0.0 280 / 28986.5 7.6 0.3
2017-Oct-17 19:00S 53°06' W 070°54'0 0.0 290 / 34985.2 7.7 0.5
2017-Oct-17 18:00S 53°06' W 070°54'0 0.0 290 / 30984.6 8.0 0.6
2017-Oct-17 17:00S 53°06' W 070°54'0 0.0 290 / 31983.5 7.5 0.8
2017-Oct-17 16:00S 53°06' W 070°54'0 0.0 300 / 34982.7 7.2 0.4
2017-Oct-17 15:00S 53°06' W 070°54'0 0.0 300 / 33982.5 5.9 0.7
2017-Oct-17 14:00S 53°06' W 070°54'0 0.0 310 / 34982.2 6.1 0.3
2017-Oct-17 13:00S 53°06' W 070°54'0 0.0 310 / 26982.8 7.1-0.7
2017-Oct-17 12:00S 53°06' W 070°54'0 0.0 320 / 26982.5 7.2-0.9
2017-Oct-17 11:00S 53°06' W 070°54'0 0.0 310 / 18983.1 6.7-1.0
2017-Oct-17 10:00S 53°06' W 070°54'0 0.0 310 / 13983.4 6.4-0.7
2017-Oct-17 09:00S 53°06' W 070°54'0 0.0 310 / 11983.3 6.7-1.2
2017-Oct-17 08:00S 53°06' W 070°54'0 0.0 350 / 7983.3 6.5-1.6
2017-Oct-17 07:00S 53°06' W 070°54'0 0.0 020 / 3983.6 6.7-1.8
2017-Oct-17 06:00S 53°06' W 070°54'0 0.0 340 / 8984.1 6.7-2.3
2017-Oct-17 05:00S 53°06' W 070°54'0 0.0 360 / 6984.7 6.9-2.0
2017-Oct-17 04:00S 53°06' W 070°54'0 0.0 360 / 8984.7 7.5-2.0
2017-Oct-17 03:00S 53°06' W 070°54'0 0.0 340 / 10984.8 8.7-2.2
2017-Oct-17 02:00S 53°06' W 070°54'0 0.0 330 / 10985.0 9.0-1.9
2017-Oct-17 01:00S 53°06' W 070°54'0 0.0 320 / 9985.4 9.3-2.1
2017-Oct-17 00:00S 53°06' W 070°54'0 0.0 310 / 10985.4 9.6-2.2
2017-Oct-16 23:00S 53°06' W 070°54'0 0.0 300 / 12985.3 11.1-2.1
2017-Oct-16 22:00S 53°06' W 070°54'0 0.0 310 / 15985.2 12.0-2.9
2017-Oct-16 21:00S 53°06' W 070°54'4 3.6 300 / 18985.1 11.6-2.3
2017-Oct-16 20:00S 53°06' W 070°48'9 9.4 290 / 20985.1 10.1-0.6
2017-Oct-16 19:00S 53°00' W 070°36'1414.0 280 / 21985.3 9.6-0.1
2017-Oct-16 18:00S 52°48' W 070°24'6 6.0 270 / 16986.1 9.5 1.0
2017-Oct-16 17:00S 52°42' W 070°24'7 7.3 240 / 12986.6 9.6 1.7
2017-Oct-16 16:00S 52°42' W 070°12'1212.5 250 / 13986.8 10.1 2.2
2017-Oct-16 15:00S 52°36' W 069°54'1212.5 270 / 12986.8 9.7 3.4
2017-Oct-16 14:00S 52°30' W 069°36'1616.3 250 / 19986.5 9.9 4.1
2017-Oct-16 13:00S 52°18' W 069°18'1111.0 290 / 24985.4 10.8 3.5
2017-Oct-16 12:00S 52°18' W 069°00'9 9.5 320 / 20984.5 9.7 3.4
2017-Oct-16 11:00S 52°24' W 068°48'4 3.7 320 / 19984.3 9.6 2.9
2017-Oct-16 10:00S 52°24' W 068°42'4 3.7 330 / 19984.5 9.4 2.6
2017-Oct-16 09:00S 52°24' W 068°36'4 3.7 340 / 17985.0 7.9 2.8
2017-Oct-16 08:00S 52°24' W 068°30'7 7.0 340 / 16985.9 8.0 3.0
2017-Oct-16 07:00S 52°30' W 068°24'7 7.3 330 / 18986.8 8.6 3.3
2017-Oct-16 06:00S 52°30' W 068°12'7 7.0 340 / 21987.8 9.8 3.9
2017-Oct-16 05:00S 52°36' W 068°06'7 7.0 340 / 19988.9 9.5 4.1
2017-Oct-16 04:00S 52°42' W 068°00'9 9.4 330 / 19989.4 9.6 3.8 5.3
2017-Oct-16 03:00S 52°48' W 067°48'7 7.0 320 / 25989.1 10.0 4.0 5.1
2017-Oct-16 02:00S 52°54' W 067°42'9 9.4 340 / 23989.4 8.8 4.5 5.1
2017-Oct-16 01:00S 53°00' W 067°30'9 9.4 010 / 21989.9 6.9 3.9 4.9
2017-Oct-16 00:00S 53°06' W 067°18'9 9.4 350 / 21990.1 8.0 4.1 5.2
2017-Oct-15 23:00S 53°12' W 067°06'1414.0 340 / 21989.6 9.2 4.4 5.4
2017-Oct-15 22:00S 53°24' W 066°54'9 9.3 320 / 19989.2 9.0 4.2 5.5
2017-Oct-15 21:00S 53°30' W 066°42'1212.3 320 / 20988.7 8.6 4.3 5.7
2017-Oct-15 20:00S 53°36' W 066°24'1413.9 320 / 18988.5 8.5 4.3 5.9
2017-Oct-15 19:00S 53°48' W 066°12'9 9.3 300 / 17987.7 8.6 4.9 6.3
2017-Oct-15 18:00S 53°54' W 066°00'1616.0 300 / 14987.3 7.9 5.0 6.4
2017-Oct-15 17:00S 54°06' W 065°42'9 9.2 280 / 14986.8 6.5 3.8 6.5
2017-Oct-15 16:00S 54°12' W 065°30'1212.1 270 / 18986.2 5.3 2.5 6.5
2017-Oct-15 15:00S 54°18' W 065°12'1413.9 260 / 15985.4 4.5 1.9 6.6
2017-Oct-15 14:00S 54°30' W 065°00'7 6.9 260 / 13984.7 4.4 2.3 6.6
2017-Oct-15 13:00S 54°36' W 064°54'1212.0 310 / 14984.4 4.6 2.3 6.6
2017-Oct-15 12:00S 54°48' W 064°54'1212.0 340 / 15984.3 5.6 2.3 6.4
2017-Oct-15 11:00S 55°00' W 064°54'1212.0 330 / 19984.3 5.0 2.4 6.0
2017-Oct-15 10:00S 55°12' W 064°54'1212.5 320 / 23984.2 4.8 2.2 5.5
2017-Oct-15 09:00S 55°24' W 064°48'7 6.9 300 / 22984.9 5.0 2.0 5.6
2017-Oct-15 08:00S 55°30' W 064°42'1212.0 310 / 25985.3 5.3 1.2 5.5
2017-Oct-15 07:00S 55°42' W 064°42'1212.5 300 / 21985.8 5.2 0.9 5.6
2017-Oct-15 06:00S 55°54' W 064°36'1212.0 300 / 23986.1 4.6 1.6 5.7
2017-Oct-15 05:00S 56°06' W 064°36'7 6.9 280 / 22986.7 3.7 1.7 5.2
2017-Oct-15 04:00S 56°12' W 064°30'1212.0 280 / 19986.9 3.4 1.4 4.5
2017-Oct-15 03:00S 56°24' W 064°30'1212.4 270 / 19987.2 2.8 0.4 4.6
2017-Oct-15 02:00S 56°36' W 064°24'9 8.9 260 / 23987.3 2.6-0.0 5.2
2017-Oct-15 01:00S 56°42' W 064°12'1615.5 240 / 24987.6 2.2-0.9 5.0
2017-Oct-15 00:00S 56°54' W 063°54'1212.4 240 / 25987.6 1.7-2.1 4.5
2017-Oct-14 23:00S 57°06' W 064°00'1212.4 230 / 28987.2 1.5-3.2 4.2
2017-Oct-14 22:00S 57°18' W 064°06'1212.0 240 / 30986.4 1.2-3.2 4.4
2017-Oct-14 21:00S 57°30' W 064°06'6 6.0 230 / 35985.5 0.5-3.7 4.5
2017-Oct-14 20:00S 57°36' W 064°06'1212.4 240 / 36984.6 0.3-5.5 3.6
2017-Oct-14 19:00S 57°48' W 064°00'1212.0 240 / 37983.4 -0.4-5.6 2.6
2017-Oct-14 18:00S 58°00' W 064°00'1212.4 240 / 36981.7 -0.9-5.1 2.0
2017-Oct-14 17:00S 58°12' W 063°54'1212.4 240 / 37979.8 -1.0-5.9 1.8
2017-Oct-14 16:00S 58°24' W 063°48'6 6.0 240 / 40977.7 -0.8-7.3 1.7
2017-Oct-14 15:00S 58°30' W 063°48'1212.4 240 / 39976.1 -1.1-6.3 1.7
2017-Oct-14 14:00S 58°42' W 063°42'1212.0 240 / 38974.3 -1.7-6.0 1.2
2017-Oct-14 13:00S 58°54' W 063°42'7 6.8 240 / 35972.8 -1.5-6.0 0.4
2017-Oct-14 12:00S 59°00' W 063°36'1212.4 240 / 31971.6 -2.1-5.9-0.6
2017-Oct-14 11:00S 59°12' W 063°30'1212.0 250 / 25970.5 -1.9-6.2-0.7
2017-Oct-14 10:00S 59°24' W 063°30'1212.4 240 / 27969.4 -2.1-7.4-0.7
2017-Oct-14 09:00S 59°36' W 063°24'1212.0 240 / 25968.1 -2.1-6.1-0.8
2017-Oct-14 08:00S 59°48' W 063°24'1212.4 240 / 19966.7 -1.9-5.1-0.5
2017-Oct-14 07:00S 60°00' W 063°18'7 6.7 240 / 19965.5 -1.7-6.2-0.7
2017-Oct-14 06:00S 60°06' W 063°12'1212.0 240 / 20964.6 -1.9-6.5-1.2
2017-Oct-14 05:00S 60°18' W 063°12'1212.4 240 / 22963.9 -2.1-6.0-1.4
2017-Oct-14 04:00S 60°30' W 063°06'1212.4 240 / 24962.9 -2.2-6.0-1.4
2017-Oct-14 03:00S 60°42' W 063°00'1212.0 240 / 28961.7 -2.3-4.9-1.4
2017-Oct-14 02:00S 60°54' W 063°00'7 6.7 240 / 30960.1 -2.5-3.6-1.4
2017-Oct-14 01:00S 61°00' W 062°54'1212.3 260 / 18959.0 -1.8-2.5-1.3
2017-Oct-14 00:00S 61°12' W 062°48'1212.0 250 / 13958.7 -1.8-2.4-1.4
2017-Oct-13 23:00S 61°24' W 062°48'1212.3 260 / 7958.8 -2.4-3.0-1.4
2017-Oct-13 22:00S 61°36' W 062°42'1212.3 240 / 9958.8 -2.7-3.3-1.5
2017-Oct-13 21:00S 61°48' W 062°36'1212.0 240 / 12958.8 -2.3-3.1-1.5
2017-Oct-13 20:00S 62°00' W 062°36'7 6.6 260 / 9958.8 -1.6-2.3-1.5
2017-Oct-13 19:00S 62°06' W 062°30'1212.3 320 / 3959.3 -0.6-1.4-1.5
2017-Oct-13 18:00S 62°18' W 062°24'6 6.0 340 / 4960.2 -0.7-1.3-1.6
2017-Oct-13 17:00S 62°24' W 062°24'1313.2 300 / 7961.1 -1.8-2.4-1.6
2017-Oct-13 16:00S 62°36' W 062°12'7 6.6 280 / 13962.0 -2.4-2.9-1.6
2017-Oct-13 15:00S 62°42' W 062°06'7 6.6 290 / 14962.6 -1.9-2.4-1.6
2017-Oct-13 14:00S 62°48' W 062°00'1313.2 270 / 14962.7 -1.7-2.2-1.6
2017-Oct-13 13:00S 63°00' W 061°48'7 6.6 250 / 19963.0 -2.1-2.6-1.7
2017-Oct-13 12:00S 63°06' W 061°42'7 6.6 270 / 12963.7 -1.5-2.0-1.7
2017-Oct-13 11:00S 63°12' W 061°36'6 6.0 320 / 9964.6 -0.9-1.5-1.7
2017-Oct-13 10:00S 63°18' W 061°36'7 6.6 330 / 4965.7 -0.5-1.0-1.7
2017-Oct-13 09:00S 63°24' W 061°30'7 6.6 340 / 9967.1 -0.7-1.3-1.8
2017-Oct-13 08:00S 63°30' W 061°24'6 6.0 010 / 12968.4 -0.3-0.9-1.7
2017-Oct-13 07:00S 63°36' W 061°24'6 6.0 040 / 21970.1 -2.3-2.9-1.6
2017-Oct-13 06:00S 63°42' W 061°24'6 6.0 060 / 27971.8 -3.4-4.3-1.6
2017-Oct-13 05:00S 63°48' W 061°24'7 6.6 070 / 22974.0 -2.6-4.2-1.6
2017-Oct-13 04:00S 63°54' W 061°30'5 5.3 070 / 19976.3 -3.1-5.8-1.6
2017-Oct-13 03:00S 63°54' W 061°42'6 6.0 060 / 5978.6 -3.0-8.0-1.7
2017-Oct-13 02:00S 64°00' W 061°42'7 6.5 090 / 6980.0 -3.3-9.8-1.6
2017-Oct-13 01:00S 64°06' W 061°48'1313.1 170 / 5981.0 -3.5-10.9-1.3
2017-Oct-13 00:00S 64°18' W 062°00'10 9.8 220 / 9981.6 -3.8-10.8-1.0
2017-Oct-12 23:00S 64°24' W 062°18'1212.0 220 / 10982.7 -4.0-11.6-1.0
2017-Oct-12 22:00S 64°30' W 062°42'10 9.8 150 / 8983.4 -4.4-11.1-1.2
2017-Oct-12 21:00S 64°36' W 063°00'10 9.8 200 / 12983.5 -3.5-10.4-1.1
2017-Oct-12 20:00S 64°42' W 063°18'10 9.7 220 / 6984.2 -4.1-10.0-1.6
2017-Oct-12 19:00S 64°48' W 063°36'5 5.1 290 / 11984.6 -5.2-9.2-1.6
2017-Oct-12 18:00S 64°48' W 063°48'3 2.6 270 / 8985.0 -3.8-8.5-1.7
2017-Oct-12 17:00S 64°48' W 063°54'7 6.5 260 / 6985.1 -4.3-8.4-1.7
2017-Oct-12 16:00S 64°42' W 064°00'0 0.0 280 / 7985.0 -4.4-8.6
2017-Oct-12 15:00S 64°42' W 064°00'0 0.0 250 / 5985.1 -5.1-8.3
2017-Oct-12 14:00S 64°42' W 064°00'0 0.0 250 / 9984.6 -5.7-8.0
2017-Oct-12 13:00S 64°42' W 064°00'0 0.0 250 / 14983.5 -5.8-7.4
2017-Oct-12 12:00S 64°42' W 064°00'0 0.0 310 / 21981.3 -3.2-5.7
2017-Oct-12 11:00S 64°42' W 064°00'0 0.0 010 / 28980.0 -2.2-4.6
2017-Oct-12 10:00S 64°42' W 064°00'0 0.0 010 / 27980.7 -2.0-4.8
2017-Oct-12 09:00S 64°42' W 064°00'0 0.0 020 / 26981.9 -2.4-6.3
2017-Oct-12 08:00S 64°42' W 064°00'0 0.0 050 / 14983.9 -4.6-8.6
2017-Oct-12 07:00S 64°42' W 064°00'0 0.0 130 / 7985.2 -6.8-11.1
2017-Oct-12 06:00S 64°42' W 064°00'0 0.0 050 / 5986.1 -7.5-12.4
2017-Oct-12 05:00S 64°42' W 064°00'0 0.0 070 / 2986.8 -8.1-12.5
2017-Oct-12 04:00S 64°42' W 064°00'0 0.0 050 / 2987.5 -8.4-12.7
2017-Oct-12 03:00S 64°42' W 064°00'0 0.0 030 / 5988.2 -9.3-13.1
2017-Oct-12 02:00S 64°42' W 064°00'0 0.0 030 / 5989.1 -8.6-12.6
2017-Oct-12 01:00S 64°42' W 064°00'0 0.0 340 / 4989.6 -7.5-11.6
2017-Oct-12 00:00S 64°42' W 064°00'0 0.0 270 / 7989.5 -6.9-11.1
2017-Oct-11 23:00S 64°42' W 064°00'0 0.0 230 / 8989.6 -6.1-10.2
2017-Oct-11 22:00S 64°42' W 064°00'0 0.0 230 / 10989.6 -5.6-9.2
2017-Oct-11 21:00S 64°42' W 064°00'0 0.0 240 / 11989.8 -5.8-8.9
2017-Oct-11 20:00S 64°42' W 064°00'0 0.0 250 / 15989.6 -5.6-7.5
2017-Oct-11 19:00S 64°42' W 064°00'0 0.0 250 / 13989.2 -5.3-6.5
2017-Oct-11 18:00S 64°42' W 064°00'0 0.0 250 / 14988.5 -4.8-5.9
2017-Oct-11 17:00S 64°42' W 064°00'0 0.0 250 / 13987.4 -4.3-5.8
2017-Oct-11 16:00S 64°42' W 064°00'0 0.0 280 / 17986.3 -3.0-4.9
2017-Oct-11 15:00S 64°42' W 064°00'0 0.0 310 / 16985.2 -2.1-4.1
2017-Oct-11 14:00S 64°42' W 064°00'0 0.0 180 / 4984.7 -2.2-3.7
2017-Oct-11 13:00S 64°42' W 064°00'0 0.0 150 / 4984.6 -3.0-5.0
2017-Oct-11 12:00S 64°42' W 064°00'0 0.0 170 / 4984.4 -1.6-4.8
2017-Oct-11 11:00S 64°42' W 064°00'0 0.0 130 / 6984.6 -2.4-5.3
2017-Oct-11 10:00S 64°42' W 064°00'0 0.0 100 / 7985.0 -2.1-5.5
2017-Oct-11 09:00S 64°42' W 064°00'0 0.0 080 / 11985.4 -2.9-5.4
2017-Oct-11 08:00S 64°42' W 064°00'0 0.0 130 / 6986.2 -3.7-6.5
2017-Oct-11 07:00S 64°42' W 064°00'0 0.0 140 / 5986.8 -3.8-7.8
2017-Oct-11 06:00S 64°42' W 064°00'0 0.0 140 / 7987.7 -4.5-7.7
2017-Oct-11 05:00S 64°42' W 064°00'0 0.0 130 / 10989.1 -4.9-7.0
2017-Oct-11 04:00S 64°42' W 064°00'0 0.0 120 / 8990.7 -6.2-8.7
2017-Oct-11 03:00S 64°42' W 064°00'0 0.0 130 / 10992.2 -7.1-10.6
2017-Oct-11 02:00S 64°42' W 064°00'0 0.0 080 / 5993.8 -6.2-9.8
2017-Oct-11 01:00S 64°42' W 064°00'0 0.0 130 / 8995.6 -9.7-11.9
2017-Oct-11 00:00S 64°42' W 064°00'0 0.0 130 / 4997.4 -9.9-12.2
2017-Oct-10 23:00S 64°42' W 064°00'0 0.0 120 / 11998.3 -9.8-12.0
2017-Oct-10 22:00S 64°42' W 064°00'0 0.0 120 / 9999.3 -9.3-11.8
2017-Oct-10 21:00S 64°42' W 064°00'0 0.0 130 / 51000.1 -9.1-12.1
2017-Oct-10 20:00S 64°42' W 064°00'0 0.0 130 / 31000.8 -8.9-12.4
2017-Oct-10 19:00S 64°42' W 064°00'0 0.0 100 / 21001.5 -7.8-12.0
2017-Oct-10 18:00S 64°42' W 064°00'0 0.0 140 / 11001.9 -7.1-11.6
2017-Oct-10 17:00S 64°42' W 064°00'0 0.0 180 / 11002.0 -7.7-11.3
2017-Oct-10 16:00S 64°42' W 064°00'0 0.0 150 / 21002.0 -9.1-12.1
2017-Oct-10 15:00S 64°42' W 064°00'0 0.0 140 / 31002.2 -9.2-12.0
2017-Oct-10 14:00S 64°42' W 064°00'0 0.0 130 / 31001.9 -9.2-11.9
2017-Oct-10 13:00S 64°42' W 064°00'0 0.0 140 / 31001.9 -9.2-11.8
2017-Oct-10 12:00S 64°42' W 064°00'0 0.0 100 / 21001.9 -9.3-11.6
2017-Oct-10 11:00S 64°42' W 064°00'0 0.0 090 / 31001.6 -10.0-12.0
2017-Oct-10 10:00S 64°42' W 064°00'0 0.0 130 / 31001.5 -10.3-12.4
2017-Oct-10 09:00S 64°42' W 064°00'0 0.0 150 / 31001.1 -10.0-12.4
2017-Oct-10 08:00S 64°42' W 064°00'0 0.0 200 / 41000.6 -9.1-11.8
2017-Oct-10 07:00S 64°42' W 064°00'0 0.0 200 / 41000.0 -9.1-12.1
2017-Oct-10 06:00S 64°42' W 064°00'0 0.0 200 / 3999.0 -9.0-12.0
2017-Oct-10 05:00S 64°42' W 064°00'0 0.0 090 / 2998.4 -9.5-12.2
2017-Oct-10 04:00S 64°42' W 064°00'0 0.0 130 / 3997.8 -9.8-12.3
2017-Oct-10 03:00S 64°42' W 064°00'0 0.0 170 / 5997.0 -9.4-12.4
2017-Oct-10 02:00S 64°42' W 064°00'0 0.0 210 / 6996.1 -8.5-12.3
2017-Oct-10 01:00S 64°42' W 064°00'0 0.0 220 / 5995.3 -8.0-11.9
2017-Oct-10 00:00S 64°42' W 064°00'0 0.0 190 / 3994.5 -8.3-11.3
2017-Oct-09 23:00S 64°42' W 064°00'0 0.0 340 / 1993.6 -7.9-10.7
2017-Oct-09 22:00S 64°42' W 064°00'0 0.0 230 / 1992.8 -7.7-10.5
2017-Oct-09 21:00S 64°42' W 064°00'0 0.0 190 / 1991.9 -7.4-10.6
2017-Oct-09 20:00S 64°42' W 064°00'0 0.0 120 991.2 -6.5-10.0
2017-Oct-09 19:00S 64°42' W 064°00'0 0.0 230 / 2990.4 -6.1-9.9
2017-Oct-09 18:00S 64°42' W 064°00'0 0.0 250 / 3989.7 -6.2-9.9
2017-Oct-09 17:00S 64°42' W 064°00'0 0.0 240 / 4988.9 -6.4-10.2
2017-Oct-09 16:00S 64°42' W 064°00'0 0.0 220 / 4988.3 -6.6-11.1
2017-Oct-09 15:00S 64°42' W 064°00'0 0.0 220 / 3987.8 -7.2-11.5
2017-Oct-09 14:00S 64°42' W 064°00'0 0.0 290 / 3987.1 -7.4-11.7
2017-Oct-09 13:00S 64°42' W 064°00'0 0.0 310 / 3986.6 -8.3-12.2
2017-Oct-09 12:00S 64°42' W 064°00'0 0.0 270 / 4985.9 -8.5-12.2
2017-Oct-09 11:00S 64°42' W 064°00'0 0.0 300 / 6985.2 -8.8-12.3
2017-Oct-09 10:00S 64°42' W 064°00'0 0.0 300 / 5984.3 -8.8-12.3
2017-Oct-09 09:00S 64°42' W 064°00'0 0.0 280 / 6983.6 -8.9-12.1
2017-Oct-09 08:00S 64°42' W 064°00'0 0.0 270 / 7983.0 -8.6-11.5
2017-Oct-09 07:00S 64°42' W 064°00'0 0.0 220 / 8982.3 -8.5-11.1
2017-Oct-09 06:00S 64°42' W 064°00'0 0.0 240 / 9981.3 -8.5-10.9
2017-Oct-09 05:00S 64°42' W 064°00'0 0.0 240 / 9980.6 -7.8-10.2
2017-Oct-09 04:00S 64°42' W 064°00'0 0.0 260 / 7980.2 -7.0-9.6
2017-Oct-09 03:00S 64°42' W 064°00'0 0.0 270 / 8979.7 -6.8-9.7
2017-Oct-09 02:00S 64°42' W 064°00'0 0.0 270 / 8979.2 -6.4-9.3
2017-Oct-09 01:00S 64°42' W 064°00'0 0.0 280 / 7978.9 -5.1-8.5
2017-Oct-09 00:00S 64°42' W 064°00'0 0.0 290 / 8978.5 -5.2-8.5
2017-Oct-08 23:00S 64°42' W 064°00'   310 / 12978.1 -5.8-9.4
Track history (hours):
 
Tides and Currents Weather Stations Pressure Air Temp Water Temp Dewpoint Dewpoint Depression Visibility Wind Speed Wind Dir Waves Ship Positions

Oceanographic research ship Laurence M. Gould (USA)

Detailed information on ship capabilities available from University of Delaware's Ocean Information Center.

Owner: Offshore Service Vessels LLC, Cut Off, LA. More information available from US FCC via Universal Licensing System and Coast Guard Vessel Documentation Center.

Last reported at 2017-Oct-18 23:00 UTC. Time now 2017-Oct-19 00:17 UTC.
Position S 53°06' W 070°54'.

Type: Ship. MMSI: 368138000.

Wind from 280 at 11 knots

Barometer 1006.4 mb
Air temperature 6.0 ° C
Dewpoint -2.4 ° C

Date/timePositionNaut miles runAvg speedWind from/ knotsBaromVisibWave heightAir tempDewpointWater temp
2017-Oct-18 23:00S 53°06' W 070°54'0 0.0 280 / 111006.4 6.0-2.4
2017-Oct-18 22:00S 53°06' W 070°54'0 0.0 270 / 111006.0 6.6-2.9
2017-Oct-18 21:00S 53°06' W 070°54'0 0.0 270 / 141005.6 6.9-3.4
2017-Oct-18 20:00S 53°06' W 070°54'0 0.0 270 / 151005.1 6.7-3.0
2017-Oct-18 19:00S 53°06' W 070°54'0 0.0 240 / 161004.6 6.6-4.4
2017-Oct-18 18:00S 53°06' W 070°54'0 0.0 250 / 171004.4 6.5-4.4
2017-Oct-18 17:00S 53°06' W 070°54'0 0.0 250 / 161004.3 5.6-4.6
2017-Oct-18 16:00S 53°06' W 070°54'0 0.0 250 / 161004.2 5.3-4.9
2017-Oct-18 15:00S 53°06' W 070°54'0 0.0 250 / 191003.5 5.3-5.4
2017-Oct-18 14:00S 53°06' W 070°54'0 0.0 260 / 161003.3 4.4-3.7
2017-Oct-18 13:00S 53°06' W 070°54'0 0.0 270 / 161002.5 4.1-3.1
2017-Oct-18 12:00S 53°06' W 070°54'0 0.0 270 / 111002.0 3.7-3.0
2017-Oct-18 11:00S 53°06' W 070°54'0 0.0 260 / 121000.9 3.7-3.6
2017-Oct-18 10:00S 53°06' W 070°54'0 0.0 260 / 12999.9 3.6-3.3
2017-Oct-18 09:00S 53°06' W 070°54'0 0.0 260 / 12998.9 3.6-2.8
2017-Oct-18 08:00S 53°06' W 070°54'0 0.0 260 / 11998.1 3.8-1.4
2017-Oct-18 07:00S 53°06' W 070°54'0 0.0 270 / 13997.0 4.0-0.5
2017-Oct-18 06:00S 53°06' W 070°54'0 0.0 280 / 14996.0 4.3-0.6
2017-Oct-18 05:00S 53°06' W 070°54'0 0.0 280 / 15995.6 4.5-0.0
2017-Oct-18 04:00S 53°06' W 070°54'0 0.0 280 / 14994.6 4.8-0.0
2017-Oct-18 03:00S 53°06' W 070°54'0 0.0 270 / 18993.5 5.2-0.0
2017-Oct-18 02:00S 53°06' W 070°54'0 0.0 270 / 20992.6 5.6-0.3
2017-Oct-18 01:00S 53°06' W 070°54'0 0.0 260 / 6992.9 5.7-0.1
2017-Oct-18 00:00S 53°06' W 070°54'0 0.0 270 / 9992.3 5.9-0.2
2017-Oct-17 23:00S 53°06' W 070°54'0 0.0 270 / 9991.3 7.4-0.0
2017-Oct-17 22:00S 53°06' W 070°54'0 0.0 270 / 16989.8 7.5 0.2
2017-Oct-17 21:00S 53°06' W 070°54'0 0.0 280 / 22988.1 7.7 0.1
2017-Oct-17 20:00S 53°06' W 070°54'0 0.0 280 / 28986.5 7.6 0.3
2017-Oct-17 19:00S 53°06' W 070°54'0 0.0 290 / 34985.2 7.7 0.5
2017-Oct-17 18:00S 53°06' W 070°54'0 0.0 290 / 30984.6 8.0 0.6
2017-Oct-17 17:00S 53°06' W 070°54'0 0.0 290 / 31983.5 7.5 0.8
2017-Oct-17 16:00S 53°06' W 070°54'0 0.0 300 / 34982.7 7.2 0.4
2017-Oct-17 15:00S 53°06' W 070°54'0 0.0 300 / 33982.5 5.9 0.7
2017-Oct-17 14:00S 53°06' W 070°54'0 0.0 310 / 34982.2 6.1 0.3
2017-Oct-17 13:00S 53°06' W 070°54'0 0.0 310 / 26982.8 7.1-0.7
2017-Oct-17 12:00S 53°06' W 070°54'0 0.0 320 / 26982.5 7.2-0.9
2017-Oct-17 11:00S 53°06' W 070°54'0 0.0 310 / 18983.1 6.7-1.0
2017-Oct-17 10:00S 53°06' W 070°54'0 0.0 310 / 13983.4 6.4-0.7
2017-Oct-17 09:00S 53°06' W 070°54'0 0.0 310 / 11983.3 6.7-1.2
2017-Oct-17 08:00S 53°06' W 070°54'0 0.0 350 / 7983.3 6.5-1.6
2017-Oct-17 07:00S 53°06' W 070°54'0 0.0 020 / 3983.6 6.7-1.8
2017-Oct-17 06:00S 53°06' W 070°54'0 0.0 340 / 8984.1 6.7-2.3
2017-Oct-17 05:00S 53°06' W 070°54'0 0.0 360 / 6984.7 6.9-2.0
2017-Oct-17 04:00S 53°06' W 070°54'0 0.0 360 / 8984.7 7.5-2.0
2017-Oct-17 03:00S 53°06' W 070°54'0 0.0 340 / 10984.8 8.7-2.2
2017-Oct-17 02:00S 53°06' W 070°54'0 0.0 330 / 10985.0 9.0-1.9
2017-Oct-17 01:00S 53°06' W 070°54'0 0.0 320 / 9985.4 9.3-2.1
2017-Oct-17 00:00S 53°06' W 070°54'0 0.0 310 / 10985.4 9.6-2.2
2017-Oct-16 23:00S 53°06' W 070°54'0 0.0 300 / 12985.3 11.1-2.1
2017-Oct-16 22:00S 53°06' W 070°54'0 0.0 310 / 15985.2 12.0-2.9
2017-Oct-16 21:00S 53°06' W 070°54'4 3.6 300 / 18985.1 11.6-2.3
2017-Oct-16 20:00S 53°06' W 070°48'9 9.4 290 / 20985.1 10.1-0.6
2017-Oct-16 19:00S 53°00' W 070°36'1414.0 280 / 21985.3 9.6-0.1
2017-Oct-16 18:00S 52°48' W 070°24'6 6.0 270 / 16986.1 9.5 1.0
2017-Oct-16 17:00S 52°42' W 070°24'7 7.3 240 / 12986.6 9.6 1.7
2017-Oct-16 16:00S 52°42' W 070°12'1212.5 250 / 13986.8 10.1 2.2
2017-Oct-16 15:00S 52°36' W 069°54'1212.5 270 / 12986.8 9.7 3.4
2017-Oct-16 14:00S 52°30' W 069°36'1616.3 250 / 19986.5 9.9 4.1
2017-Oct-16 13:00S 52°18' W 069°18'1111.0 290 / 24985.4 10.8 3.5
2017-Oct-16 12:00S 52°18' W 069°00'9 9.5 320 / 20984.5 9.7 3.4
2017-Oct-16 11:00S 52°24' W 068°48'4 3.7 320 / 19984.3 9.6 2.9
2017-Oct-16 10:00S 52°24' W 068°42'4 3.7 330 / 19984.5 9.4 2.6
2017-Oct-16 09:00S 52°24' W 068°36'4 3.7 340 / 17985.0 7.9 2.8
2017-Oct-16 08:00S 52°24' W 068°30'7 7.0 340 / 16985.9 8.0 3.0
2017-Oct-16 07:00S 52°30' W 068°24'7 7.3 330 / 18986.8 8.6 3.3
2017-Oct-16 06:00S 52°30' W 068°12'7 7.0 340 / 21987.8 9.8 3.9
2017-Oct-16 05:00S 52°36' W 068°06'7 7.0 340 / 19988.9 9.5 4.1
2017-Oct-16 04:00S 52°42' W 068°00'9 9.4 330 / 19989.4 9.6 3.8 5.3
2017-Oct-16 03:00S 52°48' W 067°48'7 7.0 320 / 25989.1 10.0 4.0 5.1
2017-Oct-16 02:00S 52°54' W 067°42'9 9.4 340 / 23989.4 8.8 4.5 5.1
2017-Oct-16 01:00S 53°00' W 067°30'9 9.4 010 / 21989.9 6.9 3.9 4.9
2017-Oct-16 00:00S 53°06' W 067°18'9 9.4 350 / 21990.1 8.0 4.1 5.2
2017-Oct-15 23:00S 53°12' W 067°06'1414.0 340 / 21989.6 9.2 4.4 5.4
2017-Oct-15 22:00S 53°24' W 066°54'9 9.3 320 / 19989.2 9.0 4.2 5.5
2017-Oct-15 21:00S 53°30' W 066°42'1212.3 320 / 20988.7 8.6 4.3 5.7
2017-Oct-15 20:00S 53°36' W 066°24'1413.9 320 / 18988.5 8.5 4.3 5.9
2017-Oct-15 19:00S 53°48' W 066°12'9 9.3 300 / 17987.7 8.6 4.9 6.3
2017-Oct-15 18:00S 53°54' W 066°00'1616.0 300 / 14987.3 7.9 5.0 6.4
2017-Oct-15 17:00S 54°06' W 065°42'9 9.2 280 / 14986.8 6.5 3.8 6.5
2017-Oct-15 16:00S 54°12' W 065°30'1212.1 270 / 18986.2 5.3 2.5 6.5
2017-Oct-15 15:00S 54°18' W 065°12'1413.9 260 / 15985.4 4.5 1.9 6.6
2017-Oct-15 14:00S 54°30' W 065°00'7 6.9 260 / 13984.7 4.4 2.3 6.6
2017-Oct-15 13:00S 54°36' W 064°54'1212.0 310 / 14984.4 4.6 2.3 6.6
2017-Oct-15 12:00S 54°48' W 064°54'1212.0 340 / 15984.3 5.6 2.3 6.4
2017-Oct-15 11:00S 55°00' W 064°54'1212.0 330 / 19984.3 5.0 2.4 6.0
2017-Oct-15 10:00S 55°12' W 064°54'1212.5 320 / 23984.2 4.8 2.2 5.5
2017-Oct-15 09:00S 55°24' W 064°48'7 6.9 300 / 22984.9 5.0 2.0 5.6
2017-Oct-15 08:00S 55°30' W 064°42'1212.0 310 / 25985.3 5.3 1.2 5.5
2017-Oct-15 07:00S 55°42' W 064°42'1212.5 300 / 21985.8 5.2 0.9 5.6
2017-Oct-15 06:00S 55°54' W 064°36'1212.0 300 / 23986.1 4.6 1.6 5.7
2017-Oct-15 05:00S 56°06' W 064°36'7 6.9 280 / 22986.7 3.7 1.7 5.2
2017-Oct-15 04:00S 56°12' W 064°30'1212.0 280 / 19986.9 3.4 1.4 4.5
2017-Oct-15 03:00S 56°24' W 064°30'1212.4 270 / 19987.2 2.8 0.4 4.6
2017-Oct-15 02:00S 56°36' W 064°24'9 8.9 260 / 23987.3 2.6-0.0 5.2
2017-Oct-15 01:00S 56°42' W 064°12'1615.5 240 / 24987.6 2.2-0.9 5.0
2017-Oct-15 00:00S 56°54' W 063°54'1212.4 240 / 25987.6 1.7-2.1 4.5
2017-Oct-14 23:00S 57°06' W 064°00'1212.4 230 / 28987.2 1.5-3.2 4.2
2017-Oct-14 22:00S 57°18' W 064°06'1212.0 240 / 30986.4 1.2-3.2 4.4
2017-Oct-14 21:00S 57°30' W 064°06'6 6.0 230 / 35985.5 0.5-3.7 4.5
2017-Oct-14 20:00S 57°36' W 064°06'1212.4 240 / 36984.6 0.3-5.5 3.6
2017-Oct-14 19:00S 57°48' W 064°00'1212.0 240 / 37983.4 -0.4-5.6 2.6
2017-Oct-14 18:00S 58°00' W 064°00'1212.4 240 / 36981.7 -0.9-5.1 2.0
2017-Oct-14 17:00S 58°12' W 063°54'1212.4 240 / 37979.8 -1.0-5.9 1.8
2017-Oct-14 16:00S 58°24' W 063°48'6 6.0 240 / 40977.7 -0.8-7.3 1.7
2017-Oct-14 15:00S 58°30' W 063°48'1212.4 240 / 39976.1 -1.1-6.3 1.7
2017-Oct-14 14:00S 58°42' W 063°42'1212.0 240 / 38974.3 -1.7-6.0 1.2
2017-Oct-14 13:00S 58°54' W 063°42'7 6.8 240 / 35972.8 -1.5-6.0 0.4
2017-Oct-14 12:00S 59°00' W 063°36'1212.4 240 / 31971.6 -2.1-5.9-0.6
2017-Oct-14 11:00S 59°12' W 063°30'1212.0 250 / 25970.5 -1.9-6.2-0.7
2017-Oct-14 10:00S 59°24' W 063°30'1212.4 240 / 27969.4 -2.1-7.4-0.7
2017-Oct-14 09:00S 59°36' W 063°24'1212.0 240 / 25968.1 -2.1-6.1-0.8
2017-Oct-14 08:00S 59°48' W 063°24'1212.4 240 / 19966.7 -1.9-5.1-0.5
2017-Oct-14 07:00S 60°00' W 063°18'7 6.7 240 / 19965.5 -1.7-6.2-0.7
2017-Oct-14 06:00S 60°06' W 063°12'1212.0 240 / 20964.6 -1.9-6.5-1.2
2017-Oct-14 05:00S 60°18' W 063°12'1212.4 240 / 22963.9 -2.1-6.0-1.4
2017-Oct-14 04:00S 60°30' W 063°06'1212.4 240 / 24962.9 -2.2-6.0-1.4
2017-Oct-14 03:00S 60°42' W 063°00'1212.0 240 / 28961.7 -2.3-4.9-1.4
2017-Oct-14 02:00S 60°54' W 063°00'7 6.7 240 / 30960.1 -2.5-3.6-1.4
2017-Oct-14 01:00S 61°00' W 062°54'1212.3 260 / 18959.0 -1.8-2.5-1.3
2017-Oct-14 00:00S 61°12' W 062°48'1212.0 250 / 13958.7 -1.8-2.4-1.4
2017-Oct-13 23:00S 61°24' W 062°48'1212.3 260 / 7958.8 -2.4-3.0-1.4
2017-Oct-13 22:00S 61°36' W 062°42'1212.3 240 / 9958.8 -2.7-3.3-1.5
2017-Oct-13 21:00S 61°48' W 062°36'1212.0 240 / 12958.8 -2.3-3.1-1.5
2017-Oct-13 20:00S 62°00' W 062°36'7 6.6 260 / 9958.8 -1.6-2.3-1.5
2017-Oct-13 19:00S 62°06' W 062°30'1212.3 320 / 3959.3 -0.6-1.4-1.5
2017-Oct-13 18:00S 62°18' W 062°24'6 6.0 340 / 4960.2 -0.7-1.3-1.6
2017-Oct-13 17:00S 62°24' W 062°24'1313.2 300 / 7961.1 -1.8-2.4-1.6
2017-Oct-13 16:00S 62°36' W 062°12'7 6.6 280 / 13962.0 -2.4-2.9-1.6
2017-Oct-13 15:00S 62°42' W 062°06'7 6.6 290 / 14962.6 -1.9-2.4-1.6
2017-Oct-13 14:00S 62°48' W 062°00'1313.2 270 / 14962.7 -1.7-2.2-1.6
2017-Oct-13 13:00S 63°00' W 061°48'7 6.6 250 / 19963.0 -2.1-2.6-1.7
2017-Oct-13 12:00S 63°06' W 061°42'7 6.6 270 / 12963.7 -1.5-2.0-1.7
2017-Oct-13 11:00S 63°12' W 061°36'6 6.0 320 / 9964.6 -0.9-1.5-1.7
2017-Oct-13 10:00S 63°18' W 061°36'7 6.6 330 / 4965.7 -0.5-1.0-1.7
2017-Oct-13 09:00S 63°24' W 061°30'7 6.6 340 / 9967.1 -0.7-1.3-1.8
2017-Oct-13 08:00S 63°30' W 061°24'6 6.0 010 / 12968.4 -0.3-0.9-1.7
2017-Oct-13 07:00S 63°36' W 061°24'6 6.0 040 / 21970.1 -2.3-2.9-1.6
2017-Oct-13 06:00S 63°42' W 061°24'6 6.0 060 / 27971.8 -3.4-4.3-1.6
2017-Oct-13 05:00S 63°48' W 061°24'7 6.6 070 / 22974.0 -2.6-4.2-1.6
2017-Oct-13 04:00S 63°54' W 061°30'5 5.3 070 / 19976.3 -3.1-5.8-1.6
2017-Oct-13 03:00S 63°54' W 061°42'6 6.0 060 / 5978.6 -3.0-8.0-1.7
2017-Oct-13 02:00S 64°00' W 061°42'7 6.5 090 / 6980.0 -3.3-9.8-1.6
2017-Oct-13 01:00S 64°06' W 061°48'1313.1 170 / 5981.0 -3.5-10.9-1.3
2017-Oct-13 00:00S 64°18' W 062°00'10 9.8 220 / 9981.6 -3.8-10.8-1.0
2017-Oct-12 23:00S 64°24' W 062°18'1212.0 220 / 10982.7 -4.0-11.6-1.0
2017-Oct-12 22:00S 64°30' W 062°42'10 9.8 150 / 8983.4 -4.4-11.1-1.2
2017-Oct-12 21:00S 64°36' W 063°00'10 9.8 200 / 12983.5 -3.5-10.4-1.1
2017-Oct-12 20:00S 64°42' W 063°18'10 9.7 220 / 6984.2 -4.1-10.0-1.6
2017-Oct-12 19:00S 64°48' W 063°36'5 5.1 290 / 11984.6 -5.2-9.2-1.6
2017-Oct-12 18:00S 64°48' W 063°48'3 2.6 270 / 8985.0 -3.8-8.5-1.7
2017-Oct-12 17:00S 64°48' W 063°54'7 6.5 260 / 6985.1 -4.3-8.4-1.7
2017-Oct-12 16:00S 64°42' W 064°00'0 0.0 280 / 7985.0 -4.4-8.6
2017-Oct-12 15:00S 64°42' W 064°00'0 0.0 250 / 5985.1 -5.1-8.3
2017-Oct-12 14:00S 64°42' W 064°00'0 0.0 250 / 9984.6 -5.7-8.0
2017-Oct-12 13:00S 64°42' W 064°00'0 0.0 250 / 14983.5 -5.8-7.4
2017-Oct-12 12:00S 64°42' W 064°00'0 0.0 310 / 21981.3 -3.2-5.7
2017-Oct-12 11:00S 64°42' W 064°00'0 0.0 010 / 28980.0 -2.2-4.6
2017-Oct-12 10:00S 64°42' W 064°00'0 0.0 010 / 27980.7 -2.0-4.8
2017-Oct-12 09:00S 64°42' W 064°00'0 0.0 020 / 26981.9 -2.4-6.3
2017-Oct-12 08:00S 64°42' W 064°00'0 0.0 050 / 14983.9 -4.6-8.6
2017-Oct-12 07:00S 64°42' W 064°00'0 0.0 130 / 7985.2 -6.8-11.1
2017-Oct-12 06:00S 64°42' W 064°00'0 0.0 050 / 5986.1 -7.5-12.4
2017-Oct-12 05:00S 64°42' W 064°00'0 0.0 070 / 2986.8 -8.1-12.5
2017-Oct-12 04:00S 64°42' W 064°00'0 0.0 050 / 2987.5 -8.4-12.7
2017-Oct-12 03:00S 64°42' W 064°00'0 0.0 030 / 5988.2 -9.3-13.1
2017-Oct-12 02:00S 64°42' W 064°00'0 0.0 030 / 5989.1 -8.6-12.6
2017-Oct-12 01:00S 64°42' W 064°00'0 0.0 340 / 4989.6 -7.5-11.6
2017-Oct-12 00:00S 64°42' W 064°00'0 0.0 270 / 7989.5 -6.9-11.1
2017-Oct-11 23:00S 64°42' W 064°00'0 0.0 230 / 8989.6 -6.1-10.2
2017-Oct-11 22:00S 64°42' W 064°00'0 0.0 230 / 10989.6 -5.6-9.2
2017-Oct-11 21:00S 64°42' W 064°00'0 0.0 240 / 11989.8 -5.8-8.9
2017-Oct-11 20:00S 64°42' W 064°00'0 0.0 250 / 15989.6 -5.6-7.5
2017-Oct-11 19:00S 64°42' W 064°00'0 0.0 250 / 13989.2 -5.3-6.5
2017-Oct-11 18:00S 64°42' W 064°00'0 0.0 250 / 14988.5 -4.8-5.9
2017-Oct-11 17:00S 64°42' W 064°00'0 0.0 250 / 13987.4 -4.3-5.8
2017-Oct-11 16:00S 64°42' W 064°00'0 0.0 280 / 17986.3 -3.0-4.9
2017-Oct-11 15:00S 64°42' W 064°00'0 0.0 310 / 16985.2 -2.1-4.1
2017-Oct-11 14:00S 64°42' W 064°00'0 0.0 180 / 4984.7 -2.2-3.7
2017-Oct-11 13:00S 64°42' W 064°00'0 0.0 150 / 4984.6 -3.0-5.0
2017-Oct-11 12:00S 64°42' W 064°00'0 0.0 170 / 4984.4 -1.6-4.8
2017-Oct-11 11:00S 64°42' W 064°00'0 0.0 130 / 6984.6 -2.4-5.3
2017-Oct-11 10:00S 64°42' W 064°00'0 0.0 100 / 7985.0 -2.1-5.5
2017-Oct-11 09:00S 64°42' W 064°00'0 0.0 080 / 11985.4 -2.9-5.4
2017-Oct-11 08:00S 64°42' W 064°00'0 0.0 130 / 6986.2 -3.7-6.5
2017-Oct-11 07:00S 64°42' W 064°00'0 0.0 140 / 5986.8 -3.8-7.8
2017-Oct-11 06:00S 64°42' W 064°00'0 0.0 140 / 7987.7 -4.5-7.7
2017-Oct-11 05:00S 64°42' W 064°00'0 0.0 130 / 10989.1 -4.9-7.0
2017-Oct-11 04:00S 64°42' W 064°00'0 0.0 120 / 8990.7 -6.2-8.7
2017-Oct-11 03:00S 64°42' W 064°00'0 0.0 130 / 10992.2 -7.1-10.6
2017-Oct-11 02:00S 64°42' W 064°00'0 0.0 080 / 5993.8 -6.2-9.8
2017-Oct-11 01:00S 64°42' W 064°00'0 0.0 130 / 8995.6 -9.7-11.9
2017-Oct-11 00:00S 64°42' W 064°00'0 0.0 130 / 4997.4 -9.9-12.2
2017-Oct-10 23:00S 64°42' W 064°00'0 0.0 120 / 11998.3 -9.8-12.0
2017-Oct-10 22:00S 64°42' W 064°00'0 0.0 120 / 9999.3 -9.3-11.8
2017-Oct-10 21:00S 64°42' W 064°00'0 0.0 130 / 51000.1 -9.1-12.1
2017-Oct-10 20:00S 64°42' W 064°00'0 0.0 130 / 31000.8 -8.9-12.4
2017-Oct-10 19:00S 64°42' W 064°00'0 0.0 100 / 21001.5 -7.8-12.0
2017-Oct-10 18:00S 64°42' W 064°00'0 0.0 140 / 11001.9 -7.1-11.6
2017-Oct-10 17:00S 64°42' W 064°00'0 0.0 180 / 11002.0 -7.7-11.3
2017-Oct-10 16:00S 64°42' W 064°00'0 0.0 150 / 21002.0 -9.1-12.1
2017-Oct-10 15:00S 64°42' W 064°00'0 0.0 140 / 31002.2 -9.2-12.0
2017-Oct-10 14:00S 64°42' W 064°00'0 0.0 130 / 31001.9 -9.2-11.9
2017-Oct-10 13:00S 64°42' W 064°00'0 0.0 140 / 31001.9 -9.2-11.8
2017-Oct-10 12:00S 64°42' W 064°00'0 0.0 100 / 21001.9 -9.3-11.6
2017-Oct-10 11:00S 64°42' W 064°00'0 0.0 090 / 31001.6 -10.0-12.0
2017-Oct-10 10:00S 64°42' W 064°00'0 0.0 130 / 31001.5 -10.3-12.4
2017-Oct-10 09:00S 64°42' W 064°00'0 0.0 150 / 31001.1 -10.0-12.4
2017-Oct-10 08:00S 64°42' W 064°00'0 0.0 200 / 41000.6 -9.1-11.8
2017-Oct-10 07:00S 64°42' W 064°00'0 0.0 200 / 41000.0 -9.1-12.1
2017-Oct-10 06:00S 64°42' W 064°00'0 0.0 200 / 3999.0 -9.0-12.0
2017-Oct-10 05:00S 64°42' W 064°00'0 0.0 090 / 2998.4 -9.5-12.2
2017-Oct-10 04:00S 64°42' W 064°00'0 0.0 130 / 3997.8 -9.8-12.3
2017-Oct-10 03:00S 64°42' W 064°00'0 0.0 170 / 5997.0 -9.4-12.4
2017-Oct-10 02:00S 64°42' W 064°00'0 0.0 210 / 6996.1 -8.5-12.3
2017-Oct-10 01:00S 64°42' W 064°00'0 0.0 220 / 5995.3 -8.0-11.9
2017-Oct-10 00:00S 64°42' W 064°00'0 0.0 190 / 3994.5 -8.3-11.3
2017-Oct-09 23:00S 64°42' W 064°00'0 0.0 340 / 1993.6 -7.9-10.7
2017-Oct-09 22:00S 64°42' W 064°00'0 0.0 230 / 1992.8 -7.7-10.5
2017-Oct-09 21:00S 64°42' W 064°00'0 0.0 190 / 1991.9 -7.4-10.6
2017-Oct-09 20:00S 64°42' W 064°00'0 0.0 120 991.2 -6.5-10.0
2017-Oct-09 19:00S 64°42' W 064°00'0 0.0 230 / 2990.4 -6.1-9.9
2017-Oct-09 18:00S 64°42' W 064°00'0 0.0 250 / 3989.7 -6.2-9.9
2017-Oct-09 17:00S 64°42' W 064°00'0 0.0 240 / 4988.9 -6.4-10.2
2017-Oct-09 16:00S 64°42' W 064°00'0 0.0 220 / 4988.3 -6.6-11.1
2017-Oct-09 15:00S 64°42' W 064°00'0 0.0 220 / 3987.8 -7.2-11.5
2017-Oct-09 14:00S 64°42' W 064°00'0 0.0 290 / 3987.1 -7.4-11.7
2017-Oct-09 13:00S 64°42' W 064°00'0 0.0 310 / 3986.6 -8.3-12.2
2017-Oct-09 12:00S 64°42' W 064°00'0 0.0 270 / 4985.9 -8.5-12.2
2017-Oct-09 11:00S 64°42' W 064°00'0 0.0 300 / 6985.2 -8.8-12.3
2017-Oct-09 10:00S 64°42' W 064°00'0 0.0 300 / 5984.3 -8.8-12.3
2017-Oct-09 09:00S 64°42' W 064°00'0 0.0 280 / 6983.6 -8.9-12.1
2017-Oct-09 08:00S 64°42' W 064°00'0 0.0 270 / 7983.0 -8.6-11.5
2017-Oct-09 07:00S 64°42' W 064°00'0 0.0 220 / 8982.3 -8.5-11.1
2017-Oct-09 06:00S 64°42' W 064°00'0 0.0 240 / 9981.3 -8.5-10.9
2017-Oct-09 05:00S 64°42' W 064°00'0 0.0 240 / 9980.6 -7.8-10.2
2017-Oct-09 04:00S 64°42' W 064°00'0 0.0 260 / 7980.2 -7.0-9.6
2017-Oct-09 03:00S 64°42' W 064°00'0 0.0 270 / 8979.7 -6.8-9.7
2017-Oct-09 02:00S 64°42' W 064°00'0 0.0 270 / 8979.2 -6.4-9.3
2017-Oct-09 01:00S 64°42' W 064°00'0 0.0 280 / 7978.9 -5.1-8.5
2017-Oct-09 00:00S 64°42' W 064°00'0 0.0 290 / 8978.5 -5.2-8.5
2017-Oct-08 23:00S 64°42' W 064°00'   310 / 12978.1 -5.8-9.4

Dump ship's entire track history